createdAt,value
2019-02-22T00:02:33.812Z,10.53
2019-02-22T00:05:04.067Z,10.30
2019-02-22T00:07:34.260Z,9.73
2019-02-22T00:10:05.552Z,10.13
2019-02-22T00:12:35.657Z,10.20
2019-02-22T00:15:06.788Z,11.20
2019-02-22T00:17:36.912Z,11.10
2019-02-22T00:20:07.566Z,10.13
2019-02-22T00:22:37.815Z,10.67
2019-02-22T00:25:09.321Z,10.90
2019-02-22T00:27:39.486Z,11.77
2019-02-22T00:30:09.728Z,12.03
2019-02-22T00:32:42.459Z,12.83
2019-02-22T00:35:12.178Z,11.47
2019-02-22T00:37:42.237Z,11.30
2019-02-22T00:40:12.379Z,12.23
2019-02-22T00:42:42.467Z,10.33
2019-02-22T00:45:17.757Z,11.80
2019-02-22T00:47:50.406Z,12.30
2019-02-22T00:50:20.489Z,12.77
2019-02-22T00:52:51.249Z,13.57
2019-02-22T00:55:24.565Z,12.40
2019-02-22T00:57:57.101Z,12.73
2019-02-22T01:00:27.269Z,15.80
2019-02-22T01:02:57.366Z,15.03
2019-02-22T01:05:28.866Z,12.63
2019-02-22T01:07:59.266Z,12.63
2019-02-22T01:10:31.520Z,14.23
2019-02-22T01:13:01.295Z,12.97
2019-02-22T01:15:31.487Z,12.57
2019-02-22T01:18:01.947Z,14.27
2019-02-22T01:20:32.124Z,13.07
2019-02-22T01:23:02.292Z,13.00
2019-02-22T01:25:32.407Z,13.60
2019-02-22T01:28:02.764Z,12.70
2019-02-22T01:30:32.915Z,12.13
2019-02-22T01:33:03.791Z,12.60
2019-02-22T01:35:34.022Z,15.03
2019-02-22T01:38:04.126Z,14.23
2019-02-22T01:40:43.265Z,14.53
2019-02-22T01:43:06.115Z,13.23
2019-02-22T01:45:36.239Z,13.50
2019-02-22T01:48:06.460Z,14.00
2019-02-22T01:50:36.560Z,14.33
2019-02-22T01:53:06.654Z,14.57
2019-02-22T01:55:37.084Z,14.63
2019-02-22T01:58:07.206Z,14.67
2019-02-22T02:00:37.411Z,14.13
2019-02-22T02:03:07.484Z,13.73
2019-02-22T02:05:37.936Z,14.40
2019-02-22T02:08:08.089Z,13.90
2019-02-22T02:10:38.201Z,14.30
2019-02-22T02:13:08.371Z,13.40
2019-02-22T02:15:38.455Z,14.07
2019-02-22T02:18:08.554Z,14.13
2019-02-22T02:20:38.990Z,14.03
2019-02-22T02:23:09.115Z,13.60
2019-02-22T02:25:39.214Z,14.50
2019-02-22T02:28:09.371Z,14.20
2019-02-22T02:30:39.474Z,13.80
2019-02-22T02:33:09.593Z,14.30
2019-02-22T02:35:39.985Z,13.60
2019-02-22T02:38:10.116Z,12.63
2019-02-22T02:40:41.531Z,12.93
2019-02-22T02:43:11.648Z,12.90
2019-02-22T02:45:41.763Z,13.30
2019-02-22T02:48:11.897Z,14.20
2019-02-22T02:50:42.307Z,14.23
2019-02-22T02:53:12.505Z,13.13
2019-02-22T02:55:42.620Z,12.83
2019-02-22T02:58:12.746Z,12.83
2019-02-22T03:00:43.150Z,12.80
2019-02-22T03:03:13.267Z,12.70
2019-02-22T03:06:02.709Z,13.60
2019-02-22T03:08:36.344Z,12.97
2019-02-22T03:11:06.728Z,12.50
2019-02-22T03:13:37.116Z,12.70
2019-02-22T03:16:07.164Z,12.37
2019-02-22T03:18:37.321Z,12.37
2019-02-22T03:21:07.414Z,11.93
2019-02-22T03:23:37.825Z,12.10
2019-02-22T03:26:07.966Z,12.80
2019-02-22T03:28:38.055Z,12.70
2019-02-22T03:31:08.225Z,12.90
2019-02-22T03:33:38.302Z,12.57
2019-02-22T03:36:08.452Z,12.03
2019-02-22T03:38:38.957Z,14.80
2019-02-22T03:41:09.088Z,12.53
2019-02-22T03:43:39.280Z,13.13
2019-02-22T03:46:09.400Z,14.40
2019-02-22T03:48:39.518Z,14.53
2019-02-22T03:51:09.633Z,15.80
2019-02-22T03:53:54.087Z,16.97
2019-02-22T03:56:24.187Z,17.90
2019-02-22T03:58:54.299Z,16.93
2019-02-22T04:01:24.723Z,17.53
2019-02-22T04:03:54.851Z,18.90
2019-02-22T04:06:24.977Z,18.83
2019-02-22T04:08:55.094Z,18.50
2019-02-22T04:11:25.670Z,17.63
2019-02-22T04:13:55.864Z,18.90
2019-02-22T04:16:26.060Z,18.83
2019-02-22T04:18:56.165Z,19.53
2019-02-22T04:21:26.654Z,20.20
2019-02-22T04:23:56.728Z,19.13
2019-02-22T04:26:26.869Z,19.33
2019-02-22T04:28:56.984Z,21.20
2019-02-22T04:31:27.105Z,20.60
2019-02-22T04:33:57.238Z,18.83
2019-02-22T04:36:27.699Z,19.87
2019-02-22T04:38:57.841Z,20.27
2019-02-22T04:41:28.013Z,21.10
2019-02-22T04:43:58.266Z,21.40
2019-02-22T04:46:28.949Z,21.83
2019-02-22T04:48:59.054Z,18.83
2019-02-22T04:51:29.222Z,20.40
2019-02-22T04:53:59.359Z,21.60
2019-02-22T04:56:29.541Z,22.97
2019-02-22T04:58:59.640Z,23.23
2019-02-22T05:01:29.831Z,22.37
2019-02-22T05:03:59.945Z,23.33
2019-02-22T05:06:30.370Z,23.57
2019-02-22T05:09:00.550Z,22.27
2019-02-22T05:11:33.447Z,21.13
2019-02-22T05:14:05.092Z,23.77
2019-02-22T05:16:35.210Z,24.90
2019-02-22T05:19:05.351Z,25.57
2019-02-22T05:21:35.552Z,25.37
2019-02-22T05:24:05.913Z,27.13
2019-02-22T05:26:36.047Z,26.27
2019-02-22T05:29:06.141Z,28.83
2019-02-22T05:31:36.435Z,27.03
2019-02-22T05:34:06.590Z,27.70
2019-02-22T05:36:36.730Z,26.70
2019-02-22T05:39:18.583Z,25.93
2019-02-22T05:41:39.341Z,26.13
2019-02-22T05:44:09.449Z,26.37
2019-02-22T05:46:39.551Z,26.53
2019-02-22T05:49:09.763Z,27.80
2019-02-22T05:51:39.890Z,29.27
2019-02-22T05:54:10.361Z,29.20
2019-02-22T05:56:40.500Z,30.87
2019-02-22T05:59:13.515Z,32.07
2019-02-22T06:01:43.929Z,31.60
2019-02-22T06:04:17.590Z,31.47
2019-02-22T06:06:49.800Z,31.50
2019-02-22T06:09:20.133Z,31.97
2019-02-22T06:11:50.290Z,35.33
2019-02-22T06:14:20.942Z,32.57
2019-02-22T06:16:51.065Z,31.63
2019-02-22T06:19:21.525Z,32.10
2019-02-22T06:21:51.851Z,33.10
2019-02-22T06:24:22.028Z,34.43
2019-02-22T06:26:52.255Z,33.57
2019-02-22T06:29:22.590Z,32.67
2019-02-22T06:31:53.876Z,33.20
2019-02-22T06:34:24.279Z,31.80
2019-02-22T06:37:01.638Z,33.90
2019-02-22T06:39:27.440Z,33.67
2019-02-22T06:41:57.819Z,32.20
2019-02-22T06:44:27.993Z,33.07
2019-02-22T06:47:00.922Z,32.50
2019-02-22T06:49:44.442Z,33.80
2019-02-22T06:52:20.920Z,33.20
2019-02-22T06:54:48.207Z,35.00
2019-02-22T06:57:18.634Z,34.67
2019-02-22T06:59:48.935Z,33.47
2019-02-22T07:02:19.242Z,36.23
2019-02-22T07:04:49.367Z,35.13
2019-02-22T07:07:19.590Z,36.03
2019-02-22T07:09:49.711Z,34.83
2019-02-22T07:12:56.206Z,33.37
2019-02-22T07:15:17.958Z,33.53
2019-02-22T07:17:48.080Z,33.87
2019-02-22T07:20:18.199Z,33.90
2019-02-22T07:22:48.356Z,35.10
2019-02-22T07:25:18.477Z,33.87
2019-02-22T07:30:27.721Z,34.03
2019-02-22T07:32:57.974Z,35.23
2019-02-22T07:35:47.249Z,34.20
2019-02-22T07:38:17.390Z,34.03
2019-02-22T07:40:47.556Z,34.20
2019-02-22T07:43:17.656Z,34.83
2019-02-22T07:46:06.847Z,35.20
2019-02-22T07:48:37.141Z,34.43
2019-02-22T07:51:26.550Z,35.30
2019-02-22T07:54:15.740Z,33.67
2019-02-22T07:56:48.704Z,35.63
2019-02-22T07:59:19.259Z,34.20
2019-02-22T08:01:49.459Z,34.73
2019-02-22T08:04:38.686Z,33.27
2019-02-22T08:07:11.928Z,33.60
2019-02-22T08:10:01.128Z,34.73
2019-02-22T08:12:50.555Z,34.07
2019-02-22T08:15:40.039Z,34.50
2019-02-22T08:18:10.178Z,32.23
2019-02-22T08:20:59.467Z,30.70
2019-02-22T08:23:29.927Z,32.53
2019-02-22T08:26:19.664Z,33.10
2019-02-22T08:28:52.881Z,30.93
2019-02-22T08:31:42.134Z,28.77
2019-02-22T08:34:12.266Z,28.63
2019-02-22T08:36:42.393Z,28.27
2019-02-22T08:39:31.584Z,27.10
2019-02-22T08:42:01.814Z,26.10
2019-02-22T08:44:52.272Z,27.40
2019-02-22T08:47:44.114Z,25.70
2019-02-22T08:50:14.635Z,24.60
2019-02-22T08:52:44.803Z,24.23
2019-02-22T08:55:15.236Z,24.73
2019-02-22T08:58:04.664Z,23.83
2019-02-22T09:00:53.836Z,24.10
2019-02-22T09:03:24.033Z,23.37
2019-02-22T09:05:54.954Z,24.23
2019-02-22T09:08:25.520Z,23.77
2019-02-22T09:11:00.468Z,23.77
2019-02-22T09:13:27.717Z,23.23
2019-02-22T09:16:16.881Z,23.43
2019-02-22T09:19:06.047Z,22.27
2019-02-22T09:21:47.343Z,21.67
2019-02-22T09:24:17.834Z,21.87
2019-02-22T09:26:48.151Z,21.67
2019-02-22T09:29:18.296Z,22.43
2019-02-22T09:31:48.408Z,21.77
2019-02-22T09:34:18.799Z,22.93
2019-02-22T09:37:07.964Z,23.37
2019-02-22T09:39:38.570Z,22.67
2019-02-22T09:42:27.838Z,22.87
2019-02-22T09:44:57.948Z,22.47
2019-02-22T09:47:28.059Z,20.63
2019-02-22T09:50:17.255Z,19.83
2019-02-22T09:52:48.098Z,19.83
2019-02-22T09:55:37.335Z,20.33
2019-02-22T09:58:26.772Z,20.70
2019-02-22T10:00:56.927Z,20.60
2019-02-22T10:03:46.396Z,20.23
2019-02-22T10:06:16.563Z,20.97
2019-02-22T10:08:47.040Z,20.33
2019-02-22T10:11:17.239Z,21.20
2019-02-22T10:13:48.528Z,21.23
2019-02-22T10:16:37.939Z,20.57
2019-02-22T10:19:08.177Z,18.63
2019-02-22T10:21:38.832Z,18.83
2019-02-22T10:24:28.308Z,20.37
2019-02-22T10:27:17.490Z,18.33
2019-02-22T10:29:47.872Z,19.60
2019-02-22T10:32:37.000Z,18.50
2019-02-22T10:35:07.413Z,18.27
2019-02-22T10:37:37.875Z,19.37
2019-02-22T10:40:08.062Z,20.77
2019-02-22T10:42:57.529Z,20.27
2019-02-22T10:45:27.664Z,19.40
2019-02-22T10:47:57.990Z,19.20
2019-02-22T10:50:47.426Z,18.40
2019-02-22T10:53:28.983Z,17.67
2019-02-22T10:55:59.215Z,17.03
2019-02-22T10:58:29.353Z,15.70
2019-02-22T11:00:59.795Z,16.77
2019-02-22T11:03:49.015Z,16.13
2019-02-22T11:06:19.146Z,15.30
2019-02-22T11:08:49.263Z,15.93
2019-02-22T11:11:38.544Z,14.03
2019-02-22T11:14:08.837Z,12.90
2019-02-22T11:16:58.043Z,12.17
2019-02-22T11:19:28.168Z,13.40
2019-02-22T11:21:58.398Z,10.67
2019-02-22T11:24:28.789Z,9.57
2019-02-22T11:26:59.047Z,10.87
2019-02-22T11:29:49.452Z,11.93
2019-02-22T11:32:29.793Z,11.83
2019-02-22T11:35:19.284Z,11.23
2019-02-22T11:37:49.435Z,10.70
2019-02-22T11:40:19.681Z,10.27
2019-02-22T11:43:08.875Z,10.43
2019-02-22T11:45:39.026Z,10.93
2019-02-22T11:48:09.646Z,11.57
2019-02-22T11:50:40.178Z,10.93
2019-02-22T11:53:12.692Z,9.77
2019-02-22T11:55:51.077Z,9.47
2019-02-22T11:58:21.188Z,7.40
2019-02-22T12:00:51.436Z,5.87
2019-02-22T12:03:24.933Z,6.23
2019-02-22T12:05:54.181Z,6.20
2019-02-22T12:08:43.313Z,7.13
2019-02-22T12:11:13.510Z,8.00
2019-02-22T12:13:43.643Z,6.90
2019-02-22T12:16:14.056Z,5.80
2019-02-22T12:18:44.266Z,5.60
2019-02-22T12:21:14.324Z,5.70
2019-02-22T12:23:44.473Z,6.00
2019-02-22T12:26:14.722Z,6.03
2019-02-22T12:28:44.836Z,5.83
2019-02-22T12:31:34.002Z,5.87
2019-02-22T12:34:23.161Z,7.87
2019-02-22T12:36:53.297Z,8.17
2019-02-22T12:39:23.823Z,8.00
2019-02-22T12:42:13.501Z,8.00
2019-02-22T12:44:43.602Z,8.67
2019-02-22T12:47:13.979Z,8.40
2019-02-22T12:49:45.586Z,9.50
2019-02-22T12:52:15.787Z,9.87
2019-02-22T12:54:46.126Z,9.63
2019-02-22T12:57:16.329Z,10.70
2019-02-22T12:59:46.483Z,9.67
2019-02-22T13:02:16.874Z,8.93
2019-02-22T13:04:47.061Z,8.43
2019-02-22T13:07:17.176Z,8.00
2019-02-22T13:10:06.558Z,8.60
2019-02-22T13:12:36.671Z,8.07
2019-02-22T13:15:14.207Z,7.87
2019-02-22T13:17:59.010Z,7.80
2019-02-22T13:20:29.126Z,7.23
2019-02-22T13:22:59.253Z,7.83
2019-02-22T13:25:29.829Z,7.73
2019-02-22T13:27:59.963Z,7.50
2019-02-22T13:30:49.109Z,7.17
2019-02-22T13:33:38.256Z,6.53
2019-02-22T13:36:08.882Z,5.73
2019-02-22T13:38:39.308Z,5.57
2019-02-22T13:41:09.462Z,5.03
2019-02-22T13:43:43.448Z,5.13
2019-02-22T13:46:13.841Z,5.80
2019-02-22T13:49:03.100Z,5.13
2019-02-22T13:51:34.127Z,5.93
2019-02-22T13:54:05.143Z,5.93
2019-02-22T13:56:35.445Z,5.40
2019-02-22T13:59:16.910Z,4.80
2019-02-22T14:01:47.332Z,5.10
2019-02-22T14:04:17.456Z,5.10
2019-02-22T14:06:47.591Z,5.83
2019-02-22T14:09:36.876Z,5.30
2019-02-22T14:12:26.291Z,5.23
2019-02-22T14:15:15.507Z,5.10
2019-02-22T14:18:04.663Z,5.80
2019-02-22T14:20:53.846Z,5.97
2019-02-22T14:23:24.055Z,5.93
2019-02-22T14:26:13.342Z,5.70
2019-02-22T14:28:43.444Z,5.60
2019-02-22T14:31:32.921Z,6.17
2019-02-22T14:34:03.035Z,5.80
2019-02-22T14:36:52.682Z,5.80
2019-02-22T14:39:41.892Z,6.07
2019-02-22T14:42:31.311Z,6.07
2019-02-22T14:45:20.749Z,6.13
2019-02-22T14:47:51.372Z,5.30
2019-02-22T14:50:40.531Z,5.70
2019-02-22T14:53:30.003Z,6.13
2019-02-22T14:56:19.169Z,5.47
2019-02-22T14:59:00.507Z,6.03
2019-02-22T15:01:42.157Z,5.60
2019-02-22T15:04:22.223Z,5.70
2019-02-22T15:06:52.459Z,5.77
2019-02-22T15:09:41.944Z,6.53
2019-02-22T15:12:31.121Z,6.27
2019-02-22T15:18:16.412Z,5.80
2019-02-22T15:20:46.561Z,5.87
2019-02-22T15:23:16.912Z,6.13
2019-02-22T15:29:03.002Z,5.50
2019-02-22T15:31:53.546Z,5.00
2019-02-22T15:34:42.817Z,5.30
2019-02-22T15:40:41.959Z,5.50
2019-02-22T15:43:13.136Z,5.10
2019-02-22T15:46:11.773Z,4.60
2019-02-22T15:48:55.240Z,5.13
2019-02-22T15:51:44.532Z,5.63
2019-02-22T15:54:33.750Z,5.10
2019-02-22T15:57:04.283Z,4.37
2019-02-22T15:59:35.793Z,4.73
2019-02-22T16:02:45.330Z,5.10
2019-02-22T16:05:22.676Z,4.70
2019-02-22T16:08:14.030Z,4.60
2019-02-22T16:10:44.797Z,4.60
2019-02-22T16:13:16.768Z,4.77
2019-02-22T16:16:06.916Z,4.43
2019-02-22T16:21:29.415Z,4.67
2019-02-22T16:24:01.146Z,4.10
2019-02-22T16:26:32.005Z,3.83
2019-02-22T16:29:02.372Z,4.20
2019-02-22T16:31:32.901Z,4.10
2019-02-22T16:34:03.370Z,4.00
2019-02-22T16:36:33.569Z,4.10
2019-02-22T16:39:06.123Z,3.50
2019-02-22T16:41:36.483Z,3.90
2019-02-22T16:44:07.185Z,4.00
2019-02-22T16:46:37.592Z,4.07
2019-02-22T16:49:26.790Z,4.20
2019-02-22T16:52:06.297Z,4.23
2019-02-22T16:54:55.551Z,4.30
2019-02-22T16:57:44.956Z,4.87
2019-02-22T17:03:15.521Z,4.03
2019-02-22T17:05:53.948Z,4.50
2019-02-22T17:09:08.133Z,4.40
2019-02-22T17:11:39.399Z,4.40
2019-02-22T17:16:55.054Z,7.60
2019-02-22T17:19:25.377Z,4.53
2019-02-22T17:21:55.920Z,4.63
2019-02-22T17:24:27.504Z,4.23
2019-02-22T17:27:01.362Z,3.63
2019-02-22T17:29:32.844Z,4.00
2019-02-22T17:32:03.156Z,4.47
2019-02-22T17:34:33.409Z,4.43
2019-02-22T17:37:04.653Z,4.07
2019-02-22T17:39:34.826Z,4.33
2019-02-22T17:42:05.049Z,4.20
2019-02-22T17:44:35.360Z,4.13
2019-02-22T17:47:24.884Z,4.40
2019-02-22T17:52:44.460Z,4.10
2019-02-22T17:57:52.374Z,3.90
2019-02-22T18:00:23.428Z,4.50
2019-02-22T18:02:53.693Z,4.10
2019-02-22T18:05:24.427Z,4.17
2019-02-22T18:08:13.656Z,3.90
2019-02-22T18:10:45.367Z,4.27
2019-02-22T18:13:16.178Z,4.20
2019-02-22T18:15:46.746Z,4.17
2019-02-22T18:18:17.038Z,4.10
2019-02-22T18:20:49.530Z,3.80
2019-02-22T18:23:39.064Z,4.07
2019-02-22T18:26:28.454Z,4.63
2019-02-22T18:28:58.923Z,4.00
2019-02-22T18:31:30.738Z,4.13
2019-02-22T18:34:21.246Z,3.70
2019-02-22T18:36:53.939Z,4.60
2019-02-22T18:42:23.232Z,4.73
2019-02-22T18:44:53.789Z,4.30
2019-02-22T18:47:24.258Z,4.50
2019-02-22T18:50:14.058Z,3.73
2019-02-22T18:52:44.708Z,3.83
2019-02-22T18:58:25.050Z,3.90
2019-02-22T19:00:55.553Z,4.77
2019-02-22T19:03:28.158Z,4.70
2019-02-22T19:06:17.304Z,4.17
2019-02-22T19:08:47.615Z,5.30
2019-02-22T19:11:36.975Z,5.20
2019-02-22T19:16:39.618Z,5.70
2019-02-22T19:19:09.740Z,5.30
2019-02-22T19:21:59.318Z,6.33
2019-02-22T19:24:29.570Z,5.57
2019-02-22T19:26:59.939Z,6.00
2019-02-22T19:29:51.849Z,6.10
2019-02-22T19:32:22.415Z,5.70
2019-02-22T19:35:11.624Z,5.87
2019-02-22T19:37:41.854Z,5.80
2019-02-22T19:40:14.205Z,5.30
2019-02-22T19:42:56.145Z,5.23
2019-02-22T19:45:26.845Z,5.50
2019-02-22T19:48:17.656Z,5.67
2019-02-22T19:50:50.132Z,6.23
2019-02-22T19:53:59.550Z,5.80
2019-02-22T19:56:29.927Z,6.17
2019-02-22T19:59:20.444Z,5.60
2019-02-22T20:02:12.460Z,6.30
2019-02-22T20:05:02.859Z,5.77
2019-02-22T20:07:54.476Z,5.73
2019-02-22T20:10:27.673Z,6.07
2019-02-22T20:13:19.734Z,6.10
2019-02-22T20:16:28.268Z,6.00
2019-02-22T20:19:36.943Z,6.23
2019-02-22T20:22:27.773Z,6.03
2019-02-22T20:25:17.844Z,6.93
2019-02-22T20:27:48.498Z,5.77
2019-02-22T20:30:22.493Z,6.33
2019-02-22T20:36:08.737Z,5.70
2019-02-22T20:39:02.940Z,6.30
2019-02-22T20:41:52.709Z,6.67
2019-02-22T20:47:33.502Z,6.00
2019-02-22T20:52:44.310Z,5.87
2019-02-22T20:55:34.459Z,6.17
2019-02-22T20:58:23.730Z,5.23
2019-02-22T21:04:41.559Z,6.13
2019-02-22T21:07:13.422Z,6.23
2019-02-22T21:10:02.875Z,6.77
2019-02-22T21:12:33.987Z,7.27
2019-02-22T21:15:23.570Z,7.13
2019-02-22T21:17:54.174Z,7.80
2019-02-22T21:20:43.370Z,7.20
2019-02-22T21:23:13.661Z,7.63
2019-02-22T21:28:25.083Z,6.60
2019-02-22T21:30:55.505Z,7.77
2019-02-22T21:34:15.532Z,7.37
2019-02-22T21:36:36.513Z,6.90
2019-02-22T21:39:07.247Z,7.77
2019-02-22T21:41:56.898Z,7.93
2019-02-22T21:44:27.084Z,7.07
2019-02-22T21:47:16.383Z,6.87
2019-02-22T21:49:46.803Z,7.60
2019-02-22T21:52:36.241Z,7.47
2019-02-22T21:55:25.490Z,7.70
2019-02-22T21:58:35.053Z,7.87
2019-02-22T22:01:24.276Z,7.93
2019-02-22T22:03:54.503Z,8.57
2019-02-22T22:06:43.959Z,7.87
2019-02-22T22:09:33.485Z,10.83
2019-02-22T22:12:03.704Z,9.80
2019-02-22T22:14:53.014Z,9.57
2019-02-22T22:17:23.471Z,8.87
2019-02-22T22:20:12.865Z,8.87
2019-02-22T22:23:02.331Z,9.30
2019-02-22T22:26:10.501Z,9.60
2019-02-22T22:29:00.081Z,8.73
2019-02-22T22:31:50.105Z,9.50
2019-02-22T22:34:39.702Z,9.07
2019-02-22T22:37:28.823Z,8.37
2019-02-22T22:40:18.266Z,9.57
2019-02-22T22:43:07.575Z,8.93
2019-02-22T22:45:37.952Z,8.07
2019-02-22T22:48:08.443Z,8.00
2019-02-22T22:50:57.677Z,8.70
2019-02-22T22:53:27.951Z,10.00
2019-02-22T22:56:17.144Z,9.43
2019-02-22T22:59:06.638Z,8.40
2019-02-22T23:01:37.189Z,9.47
2019-02-22T23:04:07.746Z,9.63
2019-02-22T23:09:30.676Z,9.17
2019-02-22T23:12:01.057Z,9.20
2019-02-22T23:14:51.564Z,10.13
2019-02-22T23:17:41.085Z,9.43
2019-02-22T23:20:30.555Z,9.70
2019-02-22T23:23:20.045Z,9.73
2019-02-22T23:25:50.256Z,9.83
2019-02-22T23:28:39.872Z,10.87
2019-02-22T23:31:29.059Z,10.70
2019-02-22T23:33:59.195Z,9.03
2019-02-22T23:36:48.628Z,9.30
2019-02-22T23:39:19.161Z,10.23
2019-02-22T23:42:08.390Z,9.97
2019-02-22T23:44:57.710Z,9.83
2019-02-22T23:47:47.266Z,10.70
2019-02-22T23:50:36.893Z,9.77
2019-02-22T23:53:26.381Z,8.90
2019-02-22T23:56:15.828Z,9.27
2019-02-22T23:59:05.001Z,10.37
